createdAt,value
2018-04-24T00:00:39.111Z,9.30
2018-04-24T00:03:07.363Z,9.30
2018-04-24T00:05:34.880Z,9.20
2018-04-24T00:08:02.369Z,9.30
2018-04-24T00:10:29.863Z,9.20
2018-04-24T00:19:41.334Z,9.20
2018-04-24T00:22:08.836Z,9.30
2018-04-24T00:24:36.335Z,9.20
2018-04-24T00:27:03.878Z,9.20
2018-04-24T00:29:31.381Z,9.20
2018-04-24T00:31:58.868Z,9.20
2018-04-24T00:34:26.488Z,9.20
2018-04-24T00:36:53.907Z,9.20
2018-04-24T00:39:21.404Z,9.20
2018-04-24T00:41:48.993Z,9.20
2018-04-24T00:44:16.532Z,9.10
2018-04-24T00:46:44.031Z,9.10
2018-04-24T00:49:13.478Z,9.10
2018-04-24T00:51:40.972Z,9.00
2018-04-24T00:54:08.466Z,9.00
2018-04-24T00:56:36.015Z,9.00
2018-04-24T00:59:03.511Z,8.90
2018-04-24T01:01:31.013Z,8.90
2018-04-24T01:03:58.539Z,8.90
2018-04-24T01:06:26.051Z,8.90
2018-04-24T01:08:53.549Z,8.90
2018-04-24T01:11:21.928Z,8.70
2018-04-24T01:13:50.198Z,8.60
2018-04-24T01:16:17.706Z,8.60
2018-04-24T01:18:46.003Z,8.40
2018-04-24T01:21:13.499Z,8.40
2018-04-24T01:23:40.998Z,8.40
2018-04-24T01:26:08.539Z,8.30
2018-04-24T01:28:36.027Z,8.20
2018-04-24T01:31:03.519Z,8.20
2018-04-24T01:33:31.106Z,8.20
2018-04-24T01:35:58.598Z,8.20
2018-04-24T01:38:26.094Z,8.10
2018-04-24T01:40:53.617Z,8.10
2018-04-24T01:43:21.115Z,8.10
2018-04-24T01:45:48.626Z,8.10
2018-04-24T01:48:16.158Z,8.10
2018-04-24T01:50:44.442Z,8.00
2018-04-24T01:53:11.939Z,8.00
2018-04-24T01:55:39.480Z,8.00
2018-04-24T01:58:06.983Z,8.00
2018-04-24T02:00:34.494Z,8.00
2018-04-24T02:03:02.850Z,8.00
2018-04-24T02:05:30.346Z,8.00
2018-04-24T02:07:57.854Z,8.00
2018-04-24T02:10:25.382Z,8.10
2018-04-24T02:12:52.879Z,8.10
2018-04-24T02:15:20.374Z,8.10
2018-04-24T02:17:47.917Z,8.10
2018-04-24T02:20:16.191Z,8.10
2018-04-24T02:22:43.785Z,8.10
2018-04-24T02:25:11.278Z,8.10
2018-04-24T02:27:38.772Z,8.10
2018-04-24T02:30:06.267Z,8.10
2018-04-24T02:32:33.811Z,8.20
2018-04-24T02:35:01.307Z,8.10
2018-04-24T02:37:29.718Z,8.20
2018-04-24T02:39:57.254Z,8.20
2018-04-24T02:42:24.750Z,8.20
2018-04-24T02:44:52.244Z,8.20
2018-04-24T02:47:20.567Z,8.20
2018-04-24T02:49:48.058Z,8.20
2018-04-24T02:52:15.546Z,8.20
2018-04-24T02:54:43.082Z,8.20
2018-04-24T02:57:10.604Z,8.20
2018-04-24T02:59:38.877Z,8.20
2018-04-24T03:02:06.405Z,8.10
2018-04-24T03:04:33.907Z,8.10
2018-04-24T03:07:02.199Z,8.10
2018-04-24T03:09:29.763Z,8.10
2018-04-24T03:11:57.356Z,8.10
2018-04-24T03:14:24.803Z,8.10
2018-04-24T03:16:52.346Z,8.00
2018-04-24T03:19:20.769Z,8.00
2018-04-24T03:21:48.265Z,8.10
2018-04-24T03:24:16.554Z,8.10
2018-04-24T03:26:44.063Z,8.10
2018-04-24T03:29:11.553Z,8.20
2018-04-24T03:31:39.874Z,8.20
2018-04-24T03:34:08.091Z,8.20
2018-04-24T03:36:36.550Z,8.30
2018-04-24T03:39:04.084Z,8.30
2018-04-24T03:41:31.582Z,8.30
2018-04-24T03:43:59.074Z,8.40
2018-04-24T03:46:27.371Z,8.40
2018-04-24T03:48:54.862Z,8.30
2018-04-24T03:51:22.355Z,8.40
2018-04-24T03:53:49.891Z,8.40
2018-04-24T03:56:17.391Z,8.40
2018-04-24T03:58:44.886Z,8.40
2018-04-24T04:01:12.444Z,8.40
2018-04-24T04:03:39.940Z,8.40
2018-04-24T04:06:07.433Z,8.40
2018-04-24T04:08:35.711Z,8.50
2018-04-24T04:11:03.226Z,8.40
2018-04-24T04:13:30.764Z,8.40
2018-04-24T04:15:58.347Z,8.40
2018-04-24T04:18:37.680Z,8.40
2018-04-24T04:21:16.886Z,8.40
2018-04-24T04:23:56.098Z,8.50
2018-04-24T04:26:23.612Z,8.50
2018-04-24T04:28:51.099Z,8.50
2018-04-24T04:31:20.226Z,8.50
2018-04-24T04:33:47.745Z,8.50
2018-04-24T04:36:15.261Z,8.50
2018-04-24T04:38:42.756Z,8.50
2018-04-24T04:41:10.301Z,8.50
2018-04-24T04:43:37.799Z,8.60
2018-04-24T04:46:05.299Z,8.60
2018-04-24T04:48:32.845Z,8.60
2018-04-24T04:51:00.435Z,8.60
2018-04-24T04:53:27.931Z,8.60
2018-04-24T04:55:55.440Z,8.70
2018-04-24T04:58:22.934Z,8.70
2018-04-24T05:00:50.431Z,8.70
2018-04-24T05:03:17.954Z,8.70
2018-04-24T05:05:45.442Z,8.80
2018-04-24T05:08:12.966Z,8.70
2018-04-24T05:10:40.575Z,8.80
2018-04-24T05:13:08.066Z,8.80
2018-04-24T05:15:35.568Z,8.80
2018-04-24T05:18:03.089Z,8.70
2018-04-24T05:20:30.596Z,8.70
2018-04-24T05:22:58.119Z,8.70
2018-04-24T05:25:25.638Z,8.70
2018-04-24T05:27:53.132Z,8.70
2018-04-24T05:30:20.657Z,8.70
2018-04-24T05:32:48.198Z,8.70
2018-04-24T05:35:16.074Z,8.70
2018-04-24T05:37:43.572Z,8.70
2018-04-24T05:40:11.095Z,8.70
2018-04-24T05:42:38.592Z,8.70
2018-04-24T05:45:06.107Z,8.70
2018-04-24T05:47:33.633Z,8.70
2018-04-24T05:50:01.129Z,8.70
2018-04-24T05:52:28.636Z,8.70
2018-04-24T05:54:56.169Z,8.80
2018-04-24T05:57:23.683Z,8.80
2018-04-24T05:59:51.178Z,8.90
2018-04-24T06:02:18.730Z,8.90
2018-04-24T06:04:46.227Z,8.90
2018-04-24T06:07:13.788Z,9.00
2018-04-24T06:09:41.240Z,9.00
2018-04-24T06:12:09.510Z,9.10
2018-04-24T06:14:37.774Z,9.20
2018-04-24T06:17:05.300Z,9.20
2018-04-24T06:19:32.816Z,9.30
2018-04-24T06:22:01.573Z,9.40
2018-04-24T06:24:30.879Z,9.60
2018-04-24T06:26:58.374Z,9.60
2018-04-24T06:29:26.636Z,9.70
2018-04-24T06:43:41.232Z,9.60
2018-04-24T06:46:08.720Z,9.60
2018-04-24T06:48:36.216Z,9.60
2018-04-24T06:51:04.498Z,9.50
2018-04-24T06:53:31.997Z,9.50
2018-04-24T06:55:59.491Z,9.50
2018-04-24T06:58:27.028Z,9.40
2018-04-24T07:00:54.578Z,9.50
2018-04-24T07:03:22.112Z,9.40
2018-04-24T07:05:49.650Z,9.40
2018-04-24T07:08:17.919Z,9.40
2018-04-24T07:10:45.424Z,9.40
2018-04-24T07:13:12.971Z,9.40
2018-04-24T07:15:40.474Z,9.40
2018-04-24T07:18:07.984Z,9.30
2018-04-24T07:20:35.519Z,9.30
2018-04-24T07:23:03.023Z,9.40
2018-04-24T07:25:30.524Z,9.40
2018-04-24T07:27:58.045Z,9.40
2018-04-24T07:30:25.584Z,9.40
2018-04-24T07:32:53.175Z,9.50
2018-04-24T07:35:20.663Z,9.50
2018-04-24T07:37:48.165Z,9.60
2018-04-24T07:40:16.427Z,9.90
2018-04-24T07:42:44.691Z,9.80
2018-04-24T07:45:12.211Z,10.00
2018-04-24T07:47:39.707Z,10.10
2018-04-24T07:50:07.233Z,10.20
2018-04-24T07:52:34.738Z,10.40
2018-04-24T07:55:02.248Z,10.60
2018-04-24T07:57:29.774Z,10.70
2018-04-24T07:59:58.039Z,10.90
2018-04-24T08:02:26.303Z,11.00
2018-04-24T08:04:53.890Z,11.00
2018-04-24T08:07:22.165Z,11.20
2018-04-24T08:09:49.679Z,11.10
2018-04-24T08:12:17.211Z,11.10
2018-04-24T08:14:44.733Z,11.20
2018-04-24T08:17:12.233Z,11.20
2018-04-24T08:19:39.792Z,11.20
2018-04-24T08:22:07.295Z,11.30
2018-04-24T08:24:34.790Z,11.40
2018-04-24T08:27:03.141Z,11.70
2018-04-24T08:29:30.635Z,11.70
2018-04-24T08:31:58.895Z,11.90
2018-04-24T08:34:26.414Z,11.90
2018-04-24T08:36:53.926Z,12.10
2018-04-24T08:39:22.195Z,12.50
2018-04-24T08:41:49.750Z,12.50
2018-04-24T08:44:17.251Z,12.70
2018-04-24T08:46:44.764Z,12.90
2018-04-24T08:49:12.339Z,13.10
2018-04-24T08:51:39.842Z,13.20
2018-04-24T08:54:07.339Z,13.30
2018-04-24T08:56:34.878Z,13.30
2018-04-24T08:59:02.382Z,13.30
2018-04-24T09:01:29.887Z,13.40
2018-04-24T09:03:57.438Z,13.40
2018-04-24T09:06:24.943Z,13.50
2018-04-24T09:08:52.448Z,13.50
2018-04-24T09:11:19.987Z,13.50
2018-04-24T09:13:47.499Z,13.50
2018-04-24T09:16:15.009Z,13.60
2018-04-24T09:18:42.560Z,13.50
2018-04-24T09:21:10.858Z,13.40
2018-04-24T09:23:38.368Z,13.40
2018-04-24T09:26:05.915Z,13.30
2018-04-24T09:28:33.423Z,13.20
2018-04-24T09:31:00.927Z,13.10
2018-04-24T09:33:28.555Z,12.90
2018-04-24T09:35:56.037Z,12.80
2018-04-24T09:38:23.537Z,12.70
2018-04-24T09:40:51.066Z,12.60
2018-04-24T09:43:18.570Z,12.50
2018-04-24T09:45:46.071Z,12.40
2018-04-24T09:48:13.608Z,12.30
2018-04-24T09:50:41.931Z,12.20
2018-04-24T09:53:09.431Z,12.20
2018-04-24T09:55:37.007Z,12.20
2018-04-24T09:58:04.514Z,12.30
2018-04-24T10:00:36.935Z,12.20
2018-04-24T10:03:04.482Z,12.20
2018-04-24T10:05:31.983Z,12.20
2018-04-24T10:07:59.482Z,12.30
2018-04-24T10:10:27.020Z,12.20
2018-04-24T10:12:54.519Z,12.20
2018-04-24T10:15:22.020Z,12.20
2018-04-24T10:17:50.359Z,12.00
2018-04-24T10:20:17.862Z,12.00
2018-04-24T10:22:45.359Z,11.90
2018-04-24T10:25:12.883Z,11.70
2018-04-24T10:27:40.395Z,11.60
2018-04-24T10:30:07.973Z,11.60
2018-04-24T10:32:35.502Z,11.60
2018-04-24T10:35:03.019Z,11.80
2018-04-24T10:37:31.346Z,12.30
2018-04-24T10:39:58.871Z,12.30
2018-04-24T10:42:26.387Z,12.50
2018-04-24T10:44:53.903Z,12.60
2018-04-24T10:47:21.472Z,12.50
2018-04-24T10:49:48.979Z,12.50
2018-04-24T10:52:16.482Z,12.50
2018-04-24T10:54:44.031Z,12.50
2018-04-24T10:57:11.592Z,12.50
2018-04-24T10:59:39.058Z,12.50
2018-04-24T11:02:06.650Z,12.50
2018-04-24T11:04:34.142Z,12.50
2018-04-24T11:07:01.638Z,12.60
2018-04-24T11:09:29.170Z,12.70
2018-04-24T11:11:56.774Z,12.80
2018-04-24T11:14:24.206Z,13.00
2018-04-24T11:16:52.510Z,13.20
2018-04-24T11:19:20.015Z,13.20
2018-04-24T11:21:47.524Z,13.20
2018-04-24T11:24:15.066Z,13.30
2018-04-24T11:26:42.560Z,13.30
2018-04-24T11:29:10.070Z,13.40
2018-04-24T11:31:37.603Z,13.40
2018-04-24T11:34:05.109Z,13.50
2018-04-24T11:36:33.278Z,13.60
2018-04-24T11:39:00.842Z,13.90
2018-04-24T11:41:28.892Z,14.10
2018-04-24T11:43:56.415Z,14.20
2018-04-24T11:46:23.928Z,14.20
2018-04-24T11:48:52.967Z,14.10
2018-04-24T11:51:20.462Z,14.10
2018-04-24T11:53:48.010Z,14.10
2018-04-24T11:56:15.566Z,14.10
2018-04-24T11:58:43.058Z,14.20
2018-04-24T12:01:10.870Z,14.20
2018-04-24T12:03:39.198Z,14.30
2018-04-24T12:06:06.692Z,14.50
2018-04-24T12:08:34.976Z,15.00
2018-04-24T12:11:02.472Z,15.00
2018-04-24T12:13:30.982Z,15.20
2018-04-24T12:15:58.739Z,15.30
2018-04-24T12:18:26.334Z,15.30
2018-04-24T12:20:53.822Z,15.20
2018-04-24T12:23:21.386Z,15.20
2018-04-24T12:25:49.498Z,15.10
2018-04-24T12:28:17.055Z,15.00
2018-04-24T12:30:44.590Z,15.00
2018-04-24T12:33:12.086Z,14.90
2018-04-24T12:35:39.652Z,14.90
2018-04-24T12:38:07.139Z,14.90
2018-04-24T12:40:34.649Z,15.00
2018-04-24T12:43:02.146Z,15.00
2018-04-24T12:45:29.690Z,15.10
2018-04-24T12:47:57.187Z,15.20
2018-04-24T12:50:24.682Z,15.20
2018-04-24T12:52:52.250Z,15.40
2018-04-24T12:55:19.767Z,15.50
2018-04-24T12:57:47.489Z,15.60
2018-04-24T13:00:15.025Z,15.60
2018-04-24T13:02:42.971Z,15.50
2018-04-24T13:05:10.484Z,15.40
2018-04-24T13:07:38.035Z,15.30
2018-04-24T13:10:05.553Z,15.20
2018-04-24T13:12:33.043Z,15.10
2018-04-24T13:15:00.578Z,15.00
2018-04-24T13:17:28.079Z,14.90
2018-04-24T13:19:55.583Z,14.70
2018-04-24T13:22:23.157Z,14.60
2018-04-24T13:24:50.658Z,14.60
2018-04-24T13:27:18.151Z,14.70
2018-04-24T13:29:45.694Z,14.60
2018-04-24T13:32:13.204Z,14.60
2018-04-24T13:34:40.698Z,14.60
2018-04-24T13:37:08.271Z,14.70
2018-04-24T13:39:35.763Z,14.70
2018-04-24T13:42:04.116Z,15.00
2018-04-24T13:44:32.326Z,15.20
2018-04-24T13:46:59.826Z,15.10
2018-04-24T13:49:27.318Z,15.40
2018-04-24T13:51:54.886Z,15.60
2018-04-24T13:54:22.379Z,15.70
2018-04-24T13:56:49.879Z,15.70
2018-04-24T13:59:17.415Z,15.70
2018-04-24T14:01:44.926Z,15.60
2018-04-24T14:04:13.192Z,15.50
2018-04-24T14:06:40.722Z,15.40
2018-04-24T14:09:08.221Z,15.40
2018-04-24T14:11:35.715Z,15.40
2018-04-24T14:14:03.281Z,15.50
2018-04-24T14:16:30.852Z,15.50
2018-04-24T14:18:58.338Z,15.60
2018-04-24T14:21:25.871Z,15.70
2018-04-24T14:23:53.395Z,15.70
2018-04-24T14:26:20.900Z,15.80
2018-04-24T14:28:48.466Z,15.90
2018-04-24T14:31:15.962Z,15.80
2018-04-24T14:33:43.476Z,15.70
2018-04-24T14:36:11.027Z,15.50
2018-04-24T14:38:38.555Z,15.50
2018-04-24T14:41:06.060Z,15.50
2018-04-24T14:43:33.596Z,15.60
2018-04-24T14:46:01.095Z,15.50
2018-04-24T14:48:28.602Z,15.50
2018-04-24T14:50:56.890Z,15.40
2018-04-24T14:53:25.155Z,15.40
2018-04-24T14:55:53.476Z,15.30
2018-04-24T14:58:21.071Z,15.30
2018-04-24T15:00:48.546Z,15.30
2018-04-24T15:03:16.043Z,15.30
2018-04-24T15:05:43.574Z,15.30
2018-04-24T15:08:11.075Z,15.40
2018-04-24T15:10:38.570Z,15.30
2018-04-24T15:13:06.135Z,15.20
2018-04-24T15:15:33.635Z,15.20
2018-04-24T15:18:01.127Z,15.20
2018-04-24T15:20:28.769Z,15.00
2018-04-24T15:22:57.009Z,15.10
2018-04-24T15:25:24.515Z,15.10
2018-04-24T15:27:52.126Z,15.20
2018-04-24T15:30:19.635Z,15.20
2018-04-24T15:32:47.139Z,15.20
2018-04-24T15:35:14.718Z,15.20
2018-04-24T15:37:42.243Z,15.30
2018-04-24T15:40:09.739Z,15.40
2018-04-24T15:42:38.115Z,15.30
2018-04-24T15:45:05.608Z,15.30
2018-04-24T15:47:33.105Z,15.10
2018-04-24T15:50:00.628Z,14.90
2018-04-24T15:52:28.144Z,14.70
2018-04-24T15:54:55.720Z,14.50
2018-04-24T15:57:23.209Z,14.30
2018-04-24T15:59:50.715Z,14.20
2018-04-24T16:02:18.206Z,14.00
2018-04-24T16:04:46.514Z,13.70
2018-04-24T16:07:14.014Z,13.60
2018-04-24T16:09:41.506Z,13.50
2018-04-24T16:12:10.146Z,13.40
2018-04-24T16:14:37.638Z,13.30
2018-04-24T16:17:05.139Z,13.20
2018-04-24T16:19:32.741Z,13.20
2018-04-24T16:22:00.610Z,13.20
2018-04-24T16:24:28.098Z,13.30
2018-04-24T16:26:55.682Z,13.30
2018-04-24T16:29:23.171Z,13.40
2018-04-24T16:31:51.426Z,13.70
2018-04-24T16:34:18.975Z,13.60
2018-04-24T16:36:46.467Z,13.70
2018-04-24T16:39:13.966Z,13.70
2018-04-24T16:41:41.495Z,13.60
2018-04-24T16:44:08.994Z,13.50
2018-04-24T16:46:36.562Z,13.30
2018-04-24T16:49:04.125Z,13.20
2018-04-24T16:51:32.383Z,13.10
2018-04-24T16:53:59.876Z,13.10
2018-04-24T16:56:27.426Z,13.10
2018-04-24T16:58:55.683Z,12.90
2018-04-24T17:01:23.178Z,12.90
2018-04-24T17:03:50.718Z,12.90
2018-04-24T17:06:19.016Z,12.70
2018-04-24T17:08:46.478Z,12.70
2018-04-24T17:11:14.032Z,12.70
2018-04-24T17:13:41.540Z,12.60
2018-04-24T17:16:09.044Z,12.60
2018-04-24T17:18:36.591Z,12.50
2018-04-24T17:21:04.862Z,12.40
2018-04-24T17:23:32.352Z,12.40
2018-04-24T17:25:59.931Z,12.30
2018-04-24T17:28:27.438Z,12.30
2018-04-24T17:30:55.023Z,12.20
2018-04-24T17:33:22.506Z,12.20
2018-04-24T17:35:50.111Z,12.10
2018-04-24T17:38:17.614Z,12.10
2018-04-24T17:40:45.963Z,12.00
2018-04-24T17:43:13.411Z,12.00
2018-04-24T17:45:40.898Z,12.00
2018-04-24T17:48:09.178Z,11.90
2018-04-24T17:50:36.704Z,11.90
2018-04-24T17:53:04.208Z,11.90
2018-04-24T17:55:32.555Z,11.70
2018-04-24T17:58:01.123Z,11.70
2018-04-24T18:00:28.920Z,11.70
2018-04-24T18:02:56.476Z,11.60
2018-04-24T18:05:23.968Z,11.60
2018-04-24T18:07:52.222Z,11.50
2018-04-24T18:10:19.760Z,11.40
2018-04-24T18:12:47.254Z,11.40
2018-04-24T18:15:15.527Z,11.40
2018-04-24T18:17:43.810Z,11.40
2018-04-24T18:20:11.303Z,11.40
2018-04-24T18:22:38.805Z,11.40
2018-04-24T18:25:06.433Z,11.30
2018-04-24T18:27:33.926Z,11.30
2018-04-24T18:30:01.443Z,11.20
2018-04-24T18:32:29.034Z,11.20
2018-04-24T18:34:56.531Z,11.10
2018-04-24T18:37:24.786Z,11.10
2018-04-24T18:39:52.305Z,11.00
2018-04-24T18:42:19.803Z,11.00
2018-04-24T18:44:47.311Z,10.90
2018-04-24T18:47:17.890Z,10.90
2018-04-24T18:49:45.556Z,10.80
2018-04-24T18:52:13.051Z,10.70
2018-04-24T18:54:41.391Z,10.60
2018-04-24T18:57:08.883Z,10.50
2018-04-24T18:59:37.145Z,10.50
2018-04-24T19:02:04.656Z,10.50
2018-04-24T19:04:32.159Z,10.50
2018-04-24T19:06:59.646Z,10.40
2018-04-24T19:09:27.952Z,10.40
2018-04-24T19:11:55.479Z,10.30
2018-04-24T19:14:25.378Z,10.30
2018-04-24T19:16:52.959Z,10.30
2018-04-24T19:19:26.375Z,10.30
2018-04-24T19:21:53.914Z,10.20
2018-04-24T19:24:27.107Z,10.20
2018-04-24T19:26:54.626Z,10.10
2018-04-24T19:29:22.183Z,10.00
2018-04-24T19:31:55.848Z,10.00
2018-04-24T19:34:24.176Z,9.90
2018-04-24T19:36:51.681Z,9.90
2018-04-24T19:39:25.002Z,9.90
2018-04-24T19:41:52.526Z,9.90
2018-04-24T19:44:20.011Z,9.80
2018-04-24T19:46:47.583Z,9.80
2018-04-24T19:49:20.923Z,9.80
2018-04-24T19:51:48.377Z,9.70
2018-04-24T19:54:15.870Z,9.70
2018-04-24T19:56:43.371Z,9.60
2018-04-24T19:59:10.915Z,9.60
2018-04-24T20:01:38.408Z,9.60
2018-04-24T20:04:05.939Z,9.60
2018-04-24T20:13:17.221Z,9.60
2018-04-24T20:15:44.731Z,9.50
2018-04-24T20:18:12.287Z,9.40
2018-04-24T20:20:39.750Z,9.40
2018-04-24T20:23:07.282Z,9.30
2018-04-24T20:25:34.781Z,9.30
2018-04-24T20:28:02.346Z,9.40
2018-04-24T20:30:29.838Z,9.40
2018-04-24T20:32:57.334Z,9.40
2018-04-24T20:35:25.691Z,9.30
2018-04-24T20:37:53.187Z,9.30
2018-04-24T20:40:20.674Z,9.30
2018-04-24T20:42:48.199Z,9.30
2018-04-24T20:45:15.690Z,9.30
2018-04-24T20:47:43.214Z,9.30
2018-04-24T20:50:10.769Z,9.30
2018-04-24T20:52:39.033Z,9.30
2018-04-24T20:55:06.535Z,9.30
2018-04-24T20:57:34.115Z,9.30
2018-04-24T21:00:01.615Z,9.20
2018-04-24T21:02:29.117Z,9.20
2018-04-24T21:04:56.630Z,9.20
2018-04-24T21:07:24.136Z,9.10
2018-04-24T21:09:51.645Z,9.10
2018-04-24T21:12:19.174Z,9.10
2018-04-24T21:14:46.693Z,9.10
2018-04-24T21:17:14.224Z,9.10
2018-04-24T21:19:42.142Z,9.10
2018-04-24T21:22:09.690Z,9.10
2018-04-24T21:24:37.182Z,9.10
2018-04-24T21:27:04.761Z,9.20
2018-04-24T21:29:32.262Z,9.20
2018-04-24T21:32:00.518Z,9.30
2018-04-24T21:34:28.131Z,9.20
2018-04-24T21:36:56.321Z,9.20
2018-04-24T21:39:23.815Z,9.20
2018-04-24T21:41:51.402Z,9.20
2018-04-24T21:44:19.680Z,9.10
2018-04-24T21:46:47.194Z,9.00
2018-04-24T21:49:14.733Z,9.00
2018-04-24T21:51:42.235Z,8.90
2018-04-24T21:54:09.731Z,8.90
2018-04-24T21:56:37.286Z,8.90
2018-04-24T21:59:04.803Z,8.90
2018-04-24T22:01:32.303Z,8.80
2018-04-24T22:04:00.631Z,8.80
2018-04-24T22:06:28.123Z,8.90
2018-04-24T22:08:55.614Z,8.90
2018-04-24T22:11:23.919Z,8.90
2018-04-24T22:13:52.182Z,8.80
2018-04-24T22:16:19.690Z,8.80
2018-04-24T22:18:47.251Z,8.90
2018-04-24T22:21:14.747Z,8.90
2018-04-24T22:23:43.015Z,8.90
2018-04-24T22:26:10.587Z,8.90
2018-04-24T22:28:38.847Z,8.90
2018-04-24T22:31:06.346Z,8.90
2018-04-24T22:33:33.879Z,8.90
2018-04-24T22:36:02.138Z,8.90
2018-04-24T22:38:29.638Z,8.80
2018-04-24T22:40:57.159Z,8.90
2018-04-24T22:43:24.650Z,8.80
2018-04-24T22:45:52.914Z,8.80
2018-04-24T22:48:20.435Z,8.80
2018-04-24T22:50:47.946Z,8.80
2018-04-24T22:53:16.210Z,8.80
2018-04-24T22:55:43.791Z,8.80
2018-04-24T22:58:11.294Z,8.80
2018-04-24T23:00:38.792Z,8.70
2018-04-24T23:03:06.336Z,8.70
2018-04-24T23:05:33.835Z,8.70
2018-04-24T23:08:01.338Z,8.70
2018-04-24T23:10:40.628Z,8.60
2018-04-24T23:13:19.946Z,8.60
2018-04-24T23:15:59.934Z,8.60
2018-04-24T23:18:39.137Z,8.50
2018-04-24T23:21:06.975Z,8.50
2018-04-24T23:23:34.470Z,8.50
2018-04-24T23:26:01.965Z,8.50
2018-04-24T23:28:29.546Z,8.50
2018-04-24T23:30:57.039Z,8.50
2018-04-24T23:33:24.527Z,8.50
2018-04-24T23:35:52.054Z,8.50
2018-04-24T23:38:19.543Z,8.50
2018-04-24T23:40:47.051Z,8.50
2018-04-24T23:43:14.595Z,8.50
2018-04-24T23:45:42.100Z,8.50
2018-04-24T23:48:09.599Z,8.40
2018-04-24T23:50:37.143Z,8.40
2018-04-24T23:53:04.650Z,8.40
2018-04-24T23:55:32.149Z,8.40
2018-04-24T23:57:59.740Z,8.40
